sensor_id;sensor_type;location;lat;lon;timestamp;pressure;altitude;pressure_sealevel;temperature;humidity
14885;BME280;7534;50.762;7.000;2023-09-08T00:02:28;87042.88;;;-143.16;70.33
14885;BME280;7534;50.762;7.000;2023-09-08T00:04:54;87081.22;;;-143.16;70.14
14885;BME280;7534;50.762;7.000;2023-09-08T00:07:20;87006.53;;;-143.16;69.88
14885;BME280;7534;50.762;7.000;2023-09-08T00:09:46;87168.00;;;-143.16;70.38
14885;BME280;7534;50.762;7.000;2023-09-08T00:12:12;87054.97;;;-143.16;70.56
14885;BME280;7534;50.762;7.000;2023-09-08T00:14:39;87002.50;;;-143.16;71.06
14885;BME280;7534;50.762;7.000;2023-09-08T00:17:05;87196.25;;;-143.16;71.05
14885;BME280;7534;50.762;7.000;2023-09-08T00:19:30;87087.25;;;-143.16;71.06
14885;BME280;7534;50.762;7.000;2023-09-08T00:21:56;87170.00;;;-143.16;70.87
14885;BME280;7534;50.762;7.000;2023-09-08T00:24:22;87095.34;;;-143.16;70.94
14885;BME280;7534;50.762;7.000;2023-09-08T00:26:48;87059.00;;;-143.16;70.91
14885;BME280;7534;50.762;7.000;2023-09-08T00:29:14;87073.16;;;-143.16;70.96
14885;BME280;7534;50.762;7.000;2023-09-08T00:31:39;87115.53;;;-143.16;70.86
14885;BME280;7534;50.762;7.000;2023-09-08T00:34:06;87071.13;;;-143.16;70.88
14885;BME280;7534;50.762;7.000;2023-09-08T00:36:32;87091.31;;;-143.16;70.93
14885;BME280;7534;50.762;7.000;2023-09-08T00:38:58;87075.16;;;-143.16;70.68
14885;BME280;7534;50.762;7.000;2023-09-08T00:41:23;87046.91;;;-143.16;70.23
14885;BME280;7534;50.762;7.000;2023-09-08T00:43:50;87099.38;;;-143.16;69.99
14885;BME280;7534;50.762;7.000;2023-09-08T00:46:17;87036.81;;;-143.16;70.08
14885;BME280;7534;50.762;7.000;2023-09-08T00:48:43;87075.16;;;-143.16;70.18
14885;BME280;7534;50.762;7.000;2023-09-08T00:51:09;87196.25;;;-143.16;70.03
14885;BME280;7534;50.762;7.000;2023-09-08T00:53:36;87095.34;;;-143.16;70.25
14885;BME280;7534;50.762;7.000;2023-09-08T00:56:03;87119.56;;;-143.16;70.26
14885;BME280;7534;50.762;7.000;2023-09-08T00:58:29;87133.69;;;-143.16;70.38
14885;BME280;7534;50.762;7.000;2023-09-08T01:00:56;87111.47;;;-143.16;70.43
14885;BME280;7534;50.762;7.000;2023-09-08T01:03:24;87121.56;;;-143.16;70.82
14885;BME280;7534;50.762;7.000;2023-09-08T01:05:51;87139.75;;;-143.16;71.02
14885;BME280;7534;50.762;7.000;2023-09-08T01:08:18;87182.13;;;-143.16;71.28
14885;BME280;7534;50.762;7.000;2023-09-08T01:10:45;87155.88;;;-143.16;71.56
14885;BME280;7534;50.762;7.000;2023-09-08T01:13:11;87163.94;;;-143.16;71.69
14885;BME280;7534;50.762;7.000;2023-09-08T01:15:37;87198.25;;;-143.16;71.67
14885;BME280;7534;50.762;7.000;2023-09-08T01:18:03;87176.06;;;-143.16;71.69
14885;BME280;7534;50.762;7.000;2023-09-08T01:24:17;87200.28;;;-143.16;74.02
14885;BME280;7534;50.762;7.000;2023-09-08T01:26:47;87170.00;;;-143.16;74.43
14885;BME280;7534;50.762;7.000;2023-09-08T01:29:15;87214.41;;;-143.16;74.33
14885;BME280;7534;50.762;7.000;2023-09-08T01:31:42;87228.53;;;-143.16;74.61
14885;BME280;7534;50.762;7.000;2023-09-08T01:34:08;87178.09;;;-143.16;74.48
14885;BME280;7534;50.762;7.000;2023-09-08T01:36:35;87212.38;;;-143.16;74.44
14885;BME280;7534;50.762;7.000;2023-09-08T01:39:04;87196.25;;;-143.16;74.31
14885;BME280;7534;50.762;7.000;2023-09-08T01:41:49;87204.31;;;-143.16;74.33
14885;BME280;7534;50.762;7.000;2023-09-08T01:44:18;87321.38;;;-143.16;73.84
14885;BME280;7534;50.762;7.000;2023-09-08T01:46:44;87230.56;;;-143.16;74.05
14885;BME280;7534;50.762;7.000;2023-09-08T01:49:09;87222.47;;;-143.16;74.17
14885;BME280;7534;50.762;7.000;2023-09-08T01:51:35;87248.72;;;-143.16;73.86
14885;BME280;7534;50.762;7.000;2023-09-08T01:54:01;87246.69;;;-143.16;73.74
14885;BME280;7534;50.762;7.000;2023-09-08T01:56:26;87281.00;;;-143.16;73.58
14885;BME280;7534;50.762;7.000;2023-09-08T01:58:52;87272.94;;;-143.16;73.87
14885;BME280;7534;50.762;7.000;2023-09-08T02:01:18;87291.09;;;-143.16;74.17
14885;BME280;7534;50.762;7.000;2023-09-08T02:03:44;87234.59;;;-143.16;74.24
14885;BME280;7534;50.762;7.000;2023-09-08T02:06:09;87264.84;;;-143.16;74.02
14885;BME280;7534;50.762;7.000;2023-09-08T02:08:35;87291.09;;;-143.16;74.24
14885;BME280;7534;50.762;7.000;2023-09-08T02:11:00;87212.38;;;-143.16;74.59
14885;BME280;7534;50.762;7.000;2023-09-08T02:13:26;87264.84;;;-143.16;74.48
14885;BME280;7534;50.762;7.000;2023-09-08T02:15:52;87365.75;;;-143.16;74.12
14885;BME280;7534;50.762;7.000;2023-09-08T02:18:17;87274.94;;;-143.16;74.55
14885;BME280;7534;50.762;7.000;2023-09-08T02:20:43;87264.84;;;-143.16;74.91
14885;BME280;7534;50.762;7.000;2023-09-08T02:23:09;87321.38;;;-143.16;74.78
14885;BME280;7534;50.762;7.000;2023-09-08T02:25:35;87299.16;;;-143.16;75.15
14885;BME280;7534;50.762;7.000;2023-09-08T02:28:00;87410.16;;;-143.16;75.30
14885;BME280;7534;50.762;7.000;2023-09-08T02:30:26;87278.97;;;-143.16;75.35
14885;BME280;7534;50.762;7.000;2023-09-08T02:32:52;87305.22;;;-143.16;75.57
14885;BME280;7534;50.762;7.000;2023-09-08T02:35:18;87260.81;;;-143.16;75.65
14885;BME280;7534;50.762;7.000;2023-09-08T02:37:43;87335.50;;;-143.16;76.04
14885;BME280;7534;50.762;7.000;2023-09-08T02:40:09;87311.28;;;-143.16;75.82
14885;BME280;7534;50.762;7.000;2023-09-08T02:42:35;87285.03;;;-143.16;75.57
14885;BME280;7534;50.762;7.000;2023-09-08T02:45:01;87305.22;;;-143.16;75.09
14885;BME280;7534;50.762;7.000;2023-09-08T02:47:26;87412.19;;;-143.16;74.94
14885;BME280;7534;50.762;7.000;2023-09-08T02:49:52;87357.69;;;-143.16;74.74
14885;BME280;7534;50.762;7.000;2023-09-08T02:52:17;87289.06;;;-143.16;74.68
14885;BME280;7534;50.762;7.000;2023-09-08T02:54:45;87291.09;;;-143.16;74.51
14885;BME280;7534;50.762;7.000;2023-09-08T02:57:10;87454.56;;;-143.16;74.45
14885;BME280;7534;50.762;7.000;2023-09-08T02:59:36;87347.59;;;-143.16;74.67
14885;BME280;7534;50.762;7.000;2023-09-08T03:02:02;87339.53;;;-143.16;74.93
14885;BME280;7534;50.762;7.000;2023-09-08T03:04:28;87307.25;;;-143.16;75.20
14885;BME280;7534;50.762;7.000;2023-09-08T03:06:53;87448.50;;;-143.16;75.65
14885;BME280;7534;50.762;7.000;2023-09-08T03:09:19;87345.59;;;-143.16;75.71
14885;BME280;7534;50.762;7.000;2023-09-08T03:11:44;87367.78;;;-143.16;75.71
14885;BME280;7534;50.762;7.000;2023-09-08T03:14:10;87369.81;;;-143.16;76.16
14885;BME280;7534;50.762;7.000;2023-09-08T03:16:36;87408.16;;;-143.16;76.38
14885;BME280;7534;50.762;7.000;2023-09-08T03:19:01;87345.59;;;-143.16;76.82
14885;BME280;7534;50.762;7.000;2023-09-08T03:21:27;87398.06;;;-143.16;77.09
14885;BME280;7534;50.762;7.000;2023-09-08T03:23:53;87410.16;;;-143.16;77.46
14885;BME280;7534;50.762;7.000;2023-09-08T03:26:18;87385.94;;;-143.16;77.38
14885;BME280;7534;50.762;7.000;2023-09-08T03:28:44;87375.84;;;-143.16;77.75
14885;BME280;7534;50.762;7.000;2023-09-08T03:31:10;87434.38;;;-143.16;76.95
14885;BME280;7534;50.762;7.000;2023-09-08T03:33:36;87307.25;;;-143.16;75.74
14885;BME280;7534;50.762;7.000;2023-09-08T03:36:02;87240.63;;;-143.16;74.80
14885;BME280;7534;50.762;7.000;2023-09-08T03:38:27;87285.03;;;-143.16;73.82
14885;BME280;7534;50.762;7.000;2023-09-08T03:40:53;87295.13;;;-143.16;73.10
14885;BME280;7534;50.762;7.000;2023-09-08T03:43:19;87252.75;;;-143.16;72.60
14885;BME280;7534;50.762;7.000;2023-09-08T03:45:44;87394.03;;;-143.16;72.36
14885;BME280;7534;50.762;7.000;2023-09-08T03:48:10;87262.84;;;-143.16;72.42
14885;BME280;7534;50.762;7.000;2023-09-08T03:50:36;87281.00;;;-143.16;72.14
14885;BME280;7534;50.762;7.000;2023-09-08T03:53:02;87272.94;;;-143.16;72.04
14885;BME280;7534;50.762;7.000;2023-09-08T03:55:27;87276.97;;;-143.16;71.65
14885;BME280;7534;50.762;7.000;2023-09-08T03:57:56;87276.97;;;-143.16;71.61
14885;BME280;7534;50.762;7.000;2023-09-08T04:00:22;87224.50;;;-143.16;71.97
14885;BME280;7534;50.762;7.000;2023-09-08T04:02:52;87228.53;;;-143.16;72.14
14885;BME280;7534;50.762;7.000;2023-09-08T04:05:18;87220.47;;;-143.16;71.77
14885;BME280;7534;50.762;7.000;2023-09-08T04:07:46;87230.56;;;-143.16;71.40
14885;BME280;7534;50.762;7.000;2023-09-08T04:10:12;87256.78;;;-143.16;71.36
14885;BME280;7534;50.762;7.000;2023-09-08T04:12:39;87301.19;;;-143.16;71.51
14885;BME280;7534;50.762;7.000;2023-09-08T04:15:06;87317.31;;;-143.16;71.63
14885;BME280;7534;50.762;7.000;2023-09-08T04:17:32;87319.34;;;-143.16;72.16
14885;BME280;7534;50.762;7.000;2023-09-08T04:19:58;87313.28;;;-143.16;72.59
14885;BME280;7534;50.762;7.000;2023-09-08T04:22:24;87400.06;;;-143.16;73.30
14885;BME280;7534;50.762;7.000;2023-09-08T04:24:50;87406.13;;;-143.16;73.62
14885;BME280;7534;50.762;7.000;2023-09-08T04:27:15;87398.06;;;-143.16;74.23
14885;BME280;7534;50.762;7.000;2023-09-08T04:29:41;87365.75;;;-143.16;74.43
14885;BME280;7534;50.762;7.000;2023-09-08T04:32:07;87472.72;;;-143.16;74.51
14885;BME280;7534;50.762;7.000;2023-09-08T04:34:39;87440.44;;;-143.16;74.80
14885;BME280;7534;50.762;7.000;2023-09-08T04:37:05;87396.03;;;-143.16;75.00
14885;BME280;7534;50.762;7.000;2023-09-08T04:39:32;87414.19;;;-143.16;76.52
14885;BME280;7534;50.762;7.000;2023-09-08T04:41:58;87400.06;;;-143.16;76.58
14885;BME280;7534;50.762;7.000;2023-09-08T04:44:24;87385.94;;;-143.16;76.35
14885;BME280;7534;50.762;7.000;2023-09-08T04:46:51;87335.50;;;-143.16;75.84
14885;BME280;7534;50.762;7.000;2023-09-08T04:49:17;87375.84;;;-143.16;75.40
14885;BME280;7534;50.762;7.000;2023-09-08T04:51:43;87313.28;;;-143.16;75.14
14885;BME280;7534;50.762;7.000;2023-09-08T04:54:09;87383.94;;;-143.16;74.83
14885;BME280;7534;50.762;7.000;2023-09-08T04:56:35;87315.31;;;-143.16;74.45
14885;BME280;7534;50.762;7.000;2023-09-08T04:59:00;87333.47;;;-143.16;74.48
14885;BME280;7534;50.762;7.000;2023-09-08T05:01:27;87466.69;;;-143.16;74.65
14885;BME280;7534;50.762;7.000;2023-09-08T05:03:54;87381.91;;;-143.16;74.60
14885;BME280;7534;50.762;7.000;2023-09-08T05:06:20;87420.25;;;-143.16;75.48
14885;BME280;7534;50.762;7.000;2023-09-08T05:08:46;87486.84;;;-143.16;75.92
14885;BME280;7534;50.762;7.000;2023-09-08T05:11:11;87371.81;;;-143.16;75.86
14885;BME280;7534;50.762;7.000;2023-09-08T05:13:37;87361.72;;;-143.16;75.26
14885;BME280;7534;50.762;7.000;2023-09-08T05:16:04;87341.53;;;-143.16;75.24
14885;BME280;7534;50.762;7.000;2023-09-08T05:18:40;87317.31;;;-143.16;75.20
14885;BME280;7534;50.762;7.000;2023-09-08T05:21:08;87270.91;;;-143.16;74.46
14885;BME280;7534;50.762;7.000;2023-09-08T05:23:34;87256.78;;;-143.16;74.63
14885;BME280;7534;50.762;7.000;2023-09-08T05:26:00;87262.84;;;-143.16;75.48
14885;BME280;7534;50.762;7.000;2023-09-08T05:28:26;87270.91;;;-143.16;76.97
14885;BME280;7534;50.762;7.000;2023-09-08T05:30:53;87307.25;;;-143.16;77.35
14885;BME280;7534;50.762;7.000;2023-09-08T05:33:19;87248.72;;;-143.16;76.38
14885;BME280;7534;50.762;7.000;2023-09-08T05:35:45;87252.75;;;-143.16;76.01
14885;BME280;7534;50.762;7.000;2023-09-08T05:38:11;87218.44;;;-143.16;76.05
14885;BME280;7534;50.762;7.000;2023-09-08T05:40:37;87194.22;;;-143.16;76.19
14885;BME280;7534;50.762;7.000;2023-09-08T05:43:04;87174.03;;;-143.16;74.77
14885;BME280;7534;50.762;7.000;2023-09-08T05:45:31;87272.94;;;-143.16;74.52
14885;BME280;7534;50.762;7.000;2023-09-08T05:47:57;87141.75;;;-143.16;74.04
14885;BME280;7534;50.762;7.000;2023-09-08T05:50:23;87153.88;;;-143.16;73.13
14885;BME280;7534;50.762;7.000;2023-09-08T05:52:50;87139.75;;;-143.16;72.99
14885;BME280;7534;50.762;7.000;2023-09-08T05:55:16;87095.34;;;-143.16;73.28
14885;BME280;7534;50.762;7.000;2023-09-08T05:57:42;87188.16;;;-143.16;71.99
14885;BME280;7534;50.762;7.000;2023-09-08T06:00:08;87032.78;;;-143.16;72.06
14885;BME280;7534;50.762;7.000;2023-09-08T06:02:34;87111.47;;;-143.16;70.61
14885;BME280;7534;50.762;7.000;2023-09-08T06:05:00;87050.94;;;-143.16;70.09
14885;BME280;7534;50.762;7.000;2023-09-08T06:07:25;87075.16;;;-143.16;69.35
14885;BME280;7534;50.762;7.000;2023-09-08T06:09:51;86998.47;;;-143.16;69.14
14885;BME280;7534;50.762;7.000;2023-09-08T06:12:17;87006.53;;;-143.16;69.01
14885;BME280;7534;50.762;7.000;2023-09-08T06:14:43;87020.69;;;-143.16;68.74
14885;BME280;7534;50.762;7.000;2023-09-08T06:17:10;86966.19;;;-143.16;68.36
14885;BME280;7534;50.762;7.000;2023-09-08T06:19:36;86927.84;;;-143.16;67.72
14885;BME280;7534;50.762;7.000;2023-09-08T06:22:01;86919.78;;;-143.16;67.50
14885;BME280;7534;50.762;7.000;2023-09-08T06:24:27;86875.38;;;-143.16;67.25
14885;BME280;7534;50.762;7.000;2023-09-08T06:26:53;86855.19;;;-143.16;66.23
14885;BME280;7534;50.762;7.000;2023-09-08T06:29:19;86687.72;;;-143.16;63.57
14885;BME280;7534;50.762;7.000;2023-09-08T06:31:44;86455.69;;;-143.16;59.68
14885;BME280;7534;50.762;7.000;2023-09-08T06:34:10;86270.06;;;-143.16;57.04
14885;BME280;7534;50.762;7.000;2023-09-08T06:36:36;85991.66;;;-143.16;50.44
14885;BME280;7534;50.762;7.000;2023-09-08T06:39:02;85622.50;;;-143.16;45.69
14885;BME280;7534;50.762;7.000;2023-09-08T06:41:29;85336.06;;;-143.16;42.31
14885;BME280;7534;50.762;7.000;2023-09-08T06:43:57;85168.66;;;-143.16;39.90
14885;BME280;7534;50.762;7.000;2023-09-08T06:46:23;84868.16;;;-143.16;37.19
14885;BME280;7534;50.762;7.000;2023-09-08T06:48:48;84519.28;;;-143.16;34.84
14885;BME280;7534;50.762;7.000;2023-09-08T06:51:14;84364.00;;;-143.16;32.97
14885;BME280;7534;50.762;7.000;2023-09-08T06:53:43;84170.44;;;-143.16;31.92
14885;BME280;7534;50.762;7.000;2023-09-08T06:56:11;83988.97;;;-143.16;30.73
14885;BME280;7534;50.762;7.000;2023-09-08T06:58:37;83908.34;;;-143.16;30.10
14885;BME280;7534;50.762;7.000;2023-09-08T07:01:02;83753.09;;;-143.16;29.36
14885;BME280;7534;50.762;7.000;2023-09-08T07:03:28;83660.34;;;-143.16;28.85
14885;BME280;7534;50.762;7.000;2023-09-08T07:05:54;83654.31;;;-143.16;28.90
14885;BME280;7534;50.762;7.000;2023-09-08T07:08:20;83726.88;;;-143.16;29.03
14885;BME280;7534;50.762;7.000;2023-09-08T07:10:51;83813.56;;;-143.16;29.07
14885;BME280;7534;50.762;7.000;2023-09-08T07:13:17;83624.06;;;-143.16;28.52
14885;BME280;7534;50.762;7.000;2023-09-08T07:15:43;83553.50;;;-143.16;28.27
14885;BME280;7534;50.762;7.000;2023-09-08T07:18:09;83547.47;;;-143.16;28.26
14885;BME280;7534;50.762;7.000;2023-09-08T07:20:34;83563.59;;;-143.16;28.51
14885;BME280;7534;50.762;7.000;2023-09-08T07:23:00;83218.88;;;-143.16;27.85
14885;BME280;7534;50.762;7.000;2023-09-08T07:25:26;83259.19;;;-143.16;27.89
14885;BME280;7534;50.762;7.000;2023-09-08T07:27:51;83114.06;;;-143.16;27.55
14885;BME280;7534;50.762;7.000;2023-09-08T07:30:20;82852.03;;;-143.16;26.53
14885;BME280;7534;50.762;7.000;2023-09-08T07:32:45;82569.84;;;-143.16;26.06
14885;BME280;7534;50.762;7.000;2023-09-08T07:35:11;82051.94;;;-143.16;25.15
14885;BME280;7534;50.762;7.000;2023-09-08T07:37:45;81296.38;;;-143.16;23.79
14885;BME280;7534;50.762;7.000;2023-09-08T07:40:11;81018.38;;;-143.16;23.37
14885;BME280;7534;50.762;7.000;2023-09-08T07:42:37;80528.88;;;-143.16;22.92
14885;BME280;7534;50.762;7.000;2023-09-08T07:45:04;80444.28;;;-143.16;22.50
14885;BME280;7534;50.762;7.000;2023-09-08T07:47:29;80526.88;;;-143.16;22.62
14885;BME280;7534;50.762;7.000;2023-09-08T07:50:21;80506.72;;;-143.16;22.53
14885;BME280;7534;50.762;7.000;2023-09-08T07:53:01;80619.53;;;-143.16;22.45
14885;BME280;7534;50.762;7.000;2023-09-08T07:55:27;80281.16;;;-143.16;22.50
14885;BME280;7534;50.762;7.000;2023-09-08T07:57:55;79683.03;;;-143.16;21.41
14885;BME280;7534;50.762;7.000;2023-09-08T08:00:21;79318.56;;;-143.16;21.02
14885;BME280;7534;50.762;7.000;2023-09-08T08:02:53;79878.38;;;-143.16;21.18
14885;BME280;7534;50.762;7.000;2023-09-08T08:05:20;80476.50;;;-143.16;21.42
14885;BME280;7534;50.762;7.000;2023-09-08T08:07:45;80663.84;;;-143.16;21.47
14885;BME280;7534;50.762;7.000;2023-09-08T08:10:12;80772.59;;;-143.16;21.78
14885;BME280;7534;50.762;7.000;2023-09-08T08:12:39;81413.22;;;-143.16;22.70
14885;BME280;7534;50.762;7.000;2023-09-08T08:15:06;81360.84;;;-143.16;22.43
14885;BME280;7534;50.762;7.000;2023-09-08T08:17:32;81481.72;;;-143.16;22.45
14885;BME280;7534;50.762;7.000;2023-09-08T08:19:58;81445.47;;;-143.16;22.51
14885;BME280;7534;50.762;7.000;2023-09-08T08:22:26;81215.78;;;-143.16;22.33
14885;BME280;7534;50.762;7.000;2023-09-08T08:24:51;81824.25;;;-143.16;22.80
14885;BME280;7534;50.762;7.000;2023-09-08T08:27:17;82007.63;;;-143.16;23.16
14885;BME280;7534;50.762;7.000;2023-09-08T08:29:43;82114.41;;;-143.16;23.49
14885;BME280;7534;50.762;7.000;2023-09-08T08:32:09;82408.63;;;-143.16;23.98
14885;BME280;7534;50.762;7.000;2023-09-08T08:34:35;82051.94;;;-143.16;23.35
14885;BME280;7534;50.762;7.000;2023-09-08T08:37:00;82420.72;;;-143.16;24.20
14885;BME280;7534;50.762;7.000;2023-09-08T08:39:27;82338.09;;;-143.16;23.85
14885;BME280;7534;50.762;7.000;2023-09-08T08:41:53;82563.81;;;-143.16;24.34
14885;BME280;7534;50.762;7.000;2023-09-08T08:44:21;82610.16;;;-143.16;24.46
14885;BME280;7534;50.762;7.000;2023-09-08T08:46:47;82696.84;;;-143.16;24.44
14885;BME280;7534;50.762;7.000;2023-09-08T08:49:15;82700.84;;;-143.16;24.81
14885;BME280;7534;50.762;7.000;2023-09-08T08:51:45;82759.31;;;-143.16;24.83
14885;BME280;7534;50.762;7.000;2023-09-08T08:54:15;82714.97;;;-143.16;24.73
14885;BME280;7534;50.762;7.000;2023-09-08T08:56:42;82868.16;;;-143.16;25.06
14885;BME280;7534;50.762;7.000;2023-09-08T08:59:11;82856.06;;;-143.16;25.22
14885;BME280;7534;50.762;7.000;2023-09-08T09:01:37;83051.56;;;-143.16;25.35
14885;BME280;7534;50.762;7.000;2023-09-08T09:04:05;82843.97;;;-143.16;24.90
14885;BME280;7534;50.762;7.000;2023-09-08T09:06:32;82841.94;;;-143.16;25.22
14885;BME280;7534;50.762;7.000;2023-09-08T09:08:59;82648.47;;;-143.16;24.81
14885;BME280;7534;50.762;7.000;2023-09-08T09:11:25;82763.34;;;-143.16;25.10
14885;BME280;7534;50.762;7.000;2023-09-08T09:13:51;82698.84;;;-143.16;24.68
14885;BME280;7534;50.762;7.000;2023-09-08T09:16:19;82630.31;;;-143.16;24.65
14885;BME280;7534;50.762;7.000;2023-09-08T09:18:54;82710.94;;;-143.16;24.75
14885;BME280;7534;50.762;7.000;2023-09-08T09:21:21;82368.31;;;-143.16;23.96
14885;BME280;7534;50.762;7.000;2023-09-08T09:23:48;82235.31;;;-143.16;24.19
14885;BME280;7534;50.762;7.000;2023-09-08T09:26:51;81997.53;;;-143.16;23.64
14885;BME280;7534;50.762;7.000;2023-09-08T09:29:18;82287.72;;;-143.16;23.85
14885;BME280;7534;50.762;7.000;2023-09-08T09:32:02;82438.88;;;-143.16;24.42
14885;BME280;7534;50.762;7.000;2023-09-08T09:34:28;82066.06;;;-143.16;23.87
14885;BME280;7534;50.762;7.000;2023-09-08T09:36:56;81904.84;;;-143.16;23.33
14885;BME280;7534;50.762;7.000;2023-09-08T09:39:25;82178.91;;;-143.16;23.92
14885;BME280;7534;50.762;7.000;2023-09-08T09:41:57;82332.06;;;-143.16;24.22
14885;BME280;7534;50.762;7.000;2023-09-08T09:44:26;82406.63;;;-143.16;24.46
14885;BME280;7534;50.762;7.000;2023-09-08T09:46:53;82301.81;;;-143.16;24.21
14885;BME280;7534;50.762;7.000;2023-09-08T09:49:19;82402.59;;;-143.16;24.29
14885;BME280;7534;50.762;7.000;2023-09-08T09:51:48;82049.94;;;-143.16;24.07
14885;BME280;7534;50.762;7.000;2023-09-08T09:54:14;82126.50;;;-143.16;24.16
14885;BME280;7534;50.762;7.000;2023-09-08T09:56:41;82092.25;;;-143.16;24.11
14885;BME280;7534;50.762;7.000;2023-09-08T09:59:13;82360.28;;;-143.16;24.35
14885;BME280;7534;50.762;7.000;2023-09-08T10:01:41;82265.56;;;-143.16;24.56
14885;BME280;7534;50.762;7.000;2023-09-08T10:04:08;82432.81;;;-143.16;24.60
14885;BME280;7534;50.762;7.000;2023-09-08T10:06:39;82412.66;;;-143.16;24.78
14885;BME280;7534;50.762;7.000;2023-09-08T10:09:06;82513.44;;;-143.16;25.28
14885;BME280;7534;50.762;7.000;2023-09-08T10:11:47;82602.09;;;-143.16;24.95
14885;BME280;7534;50.762;7.000;2023-09-08T10:14:17;82638.38;;;-143.16;25.32
14885;BME280;7534;50.762;7.000;2023-09-08T10:16:45;82735.13;;;-143.16;26.00
14885;BME280;7534;50.762;7.000;2023-09-08T10:19:16;83073.75;;;-143.16;26.67
14885;BME280;7534;50.762;7.000;2023-09-08T10:21:46;83287.41;;;-143.16;26.75
14885;BME280;7534;50.762;7.000;2023-09-08T10:24:21;83436.59;;;-143.16;27.43
14885;BME280;7534;50.762;7.000;2023-09-08T10:27:04;83626.09;;;-143.16;28.09
14885;BME280;7534;50.762;7.000;2023-09-08T10:29:32;83670.44;;;-143.16;28.40
14885;BME280;7534;50.762;7.000;2023-09-08T10:32:00;83692.59;;;-143.16;28.51
14885;BME280;7534;50.762;7.000;2023-09-08T10:34:28;83607.94;;;-143.16;28.87
14885;BME280;7534;50.762;7.000;2023-09-08T10:36:55;83809.53;;;-143.16;29.08
14885;BME280;7534;50.762;7.000;2023-09-08T10:39:32;83857.94;;;-143.16;29.37
14885;BME280;7534;50.762;7.000;2023-09-08T10:42:20;83958.72;;;-143.16;29.47
14885;BME280;7534;50.762;7.000;2023-09-08T10:47:41;83997.03;;;-143.16;29.89
14885;BME280;7534;50.762;7.000;2023-09-08T10:50:27;84017.22;;;-143.16;29.94
14885;BME280;7534;50.762;7.000;2023-09-08T10:53:12;84087.78;;;-143.16;29.88
14885;BME280;7534;50.762;7.000;2023-09-08T10:55:47;84134.16;;;-143.16;30.70
14885;BME280;7534;50.762;7.000;2023-09-08T10:58:37;84152.28;;;-143.16;30.44
14885;BME280;7534;50.762;7.000;2023-09-08T11:01:06;84138.19;;;-143.16;30.75
14885;BME280;7534;50.762;7.000;2023-09-08T11:06:12;84105.91;;;-143.16;30.38
14885;BME280;7534;50.762;7.000;2023-09-08T11:08:43;84063.56;;;-143.16;30.32
14885;BME280;7534;50.762;7.000;2023-09-08T11:11:14;84001.06;;;-143.16;30.10
14885;BME280;7534;50.762;7.000;2023-09-08T11:13:40;83952.69;;;-143.16;29.78
14885;BME280;7534;50.762;7.000;2023-09-08T11:16:07;83916.41;;;-143.16;29.61
14885;BME280;7534;50.762;7.000;2023-09-08T11:18:34;83892.19;;;-143.16;29.45
14885;BME280;7534;50.762;7.000;2023-09-08T11:21:01;83890.19;;;-143.16;29.62
14885;BME280;7534;50.762;7.000;2023-09-08T11:23:28;84029.31;;;-143.16;30.07
14885;BME280;7534;50.762;7.000;2023-09-08T11:25:54;84029.31;;;-143.16;30.28
14885;BME280;7534;50.762;7.000;2023-09-08T11:28:24;84023.25;;;-143.16;30.22
14885;BME280;7534;50.762;7.000;2023-09-08T11:30:54;84111.97;;;-143.16;30.21
14885;BME280;7534;50.762;7.000;2023-09-08T11:33:23;84077.69;;;-143.16;30.33
14885;BME280;7534;50.762;7.000;2023-09-08T11:35:53;84073.66;;;-143.16;29.84
14885;BME280;7534;50.762;7.000;2023-09-08T11:38:25;83980.91;;;-143.16;29.78
14885;BME280;7534;50.762;7.000;2023-09-08T11:40:56;83970.84;;;-143.16;30.09
14885;BME280;7534;50.762;7.000;2023-09-08T11:43:23;83892.19;;;-143.16;29.99
14885;BME280;7534;50.762;7.000;2023-09-08T11:45:49;83757.13;;;-143.16;29.73
14885;BME280;7534;50.762;7.000;2023-09-08T11:48:15;83765.19;;;-143.16;29.46
14885;BME280;7534;50.762;7.000;2023-09-08T11:50:42;83686.56;;;-143.16;28.79
14885;BME280;7534;50.762;7.000;2023-09-08T11:53:08;83692.59;;;-143.16;28.94
14885;BME280;7534;50.762;7.000;2023-09-08T11:55:37;83738.97;;;-143.16;28.63
14885;BME280;7534;50.762;7.000;2023-09-08T11:58:04;83676.47;;;-143.16;28.47
14885;BME280;7534;50.762;7.000;2023-09-08T12:00:31;83686.56;;;-143.16;28.89
14885;BME280;7534;50.762;7.000;2023-09-08T12:03:13;83722.84;;;-143.16;28.36
14885;BME280;7534;50.762;7.000;2023-09-08T12:05:44;83724.88;;;-143.16;28.40
14885;BME280;7534;50.762;7.000;2023-09-08T12:08:16;83690.59;;;-143.16;28.41
14885;BME280;7534;50.762;7.000;2023-09-08T12:10:43;83662.38;;;-143.16;28.53
14885;BME280;7534;50.762;7.000;2023-09-08T12:13:09;83624.06;;;-143.16;28.61
14885;BME280;7534;50.762;7.000;2023-09-08T12:15:40;83720.84;;;-143.16;28.89
14885;BME280;7534;50.762;7.000;2023-09-08T12:18:10;83676.47;;;-143.16;28.44
14885;BME280;7534;50.762;7.000;2023-09-08T12:20:38;83660.34;;;-143.16;28.34
14885;BME280;7534;50.762;7.000;2023-09-08T12:23:19;83632.13;;;-143.16;28.44
14885;BME280;7534;50.762;7.000;2023-09-08T12:25:52;83497.06;;;-143.16;27.42
14885;BME280;7534;50.762;7.000;2023-09-08T12:28:21;83626.09;;;-143.16;28.17
14885;BME280;7534;50.762;7.000;2023-09-08T12:31:13;83517.22;;;-143.16;27.87
14885;BME280;7534;50.762;7.000;2023-09-08T12:33:39;83424.47;;;-143.16;27.77
14885;BME280;7534;50.762;7.000;2023-09-08T12:36:17;83472.88;;;-143.16;27.70
14885;BME280;7534;50.762;7.000;2023-09-08T12:38:51;83507.13;;;-143.16;27.85
14885;BME280;7534;50.762;7.000;2023-09-08T12:41:18;83489.00;;;-143.16;27.74
14885;BME280;7534;50.762;7.000;2023-09-08T12:44:14;83478.91;;;-143.16;27.40
14885;BME280;7534;50.762;7.000;2023-09-08T12:46:41;83426.50;;;-143.16;27.41
14885;BME280;7534;50.762;7.000;2023-09-08T12:49:07;83495.03;;;-143.16;27.61
14885;BME280;7534;50.762;7.000;2023-09-08T12:51:32;83533.34;;;-143.16;27.59
14885;BME280;7534;50.762;7.000;2023-09-08T12:53:58;83603.91;;;-143.16;27.72
14885;BME280;7534;50.762;7.000;2023-09-08T12:56:24;83557.53;;;-143.16;27.82
14885;BME280;7534;50.762;7.000;2023-09-08T12:58:54;83513.19;;;-143.16;28.22
14885;BME280;7534;50.762;7.000;2023-09-08T13:01:20;83493.03;;;-143.16;27.61
14885;BME280;7534;50.762;7.000;2023-09-08T13:03:45;83464.81;;;-143.16;27.70